createdAt,value
2017-07-01T00:00:46.701Z,16.15
2017-07-01T00:03:19.007Z,16.14
2017-07-01T00:05:51.387Z,16.15
2017-07-01T00:08:23.985Z,16.14
2017-07-01T00:10:56.357Z,16.13
2017-07-01T00:13:28.635Z,16.15
2017-07-01T00:16:01.088Z,16.20
2017-07-01T00:18:33.451Z,16.15
2017-07-01T00:21:05.741Z,16.18
2017-07-01T00:23:38.111Z,16.22
2017-07-01T00:26:11.112Z,16.20
2017-07-01T00:28:43.715Z,16.11
2017-07-01T00:31:16.188Z,16.12
2017-07-01T00:33:48.301Z,16.18
2017-07-01T00:36:20.681Z,16.16
2017-07-01T00:38:53.069Z,16.20
2017-07-01T00:41:25.489Z,16.17
2017-07-01T00:43:58.058Z,16.23
2017-07-01T00:46:30.316Z,16.23
2017-07-01T00:49:02.977Z,16.25
2017-07-01T00:51:35.053Z,16.26
2017-07-01T00:54:07.499Z,16.27
2017-07-01T00:56:39.834Z,16.21
2017-07-01T00:59:12.571Z,16.21
2017-07-01T01:01:44.748Z,16.15
2017-07-01T01:04:18.193Z,16.15
2017-07-01T01:06:50.552Z,16.08
2017-07-01T01:09:23.080Z,16.01
2017-07-01T01:11:55.299Z,16.04
2017-07-01T01:14:27.837Z,16.10
2017-07-01T01:17:00.112Z,15.97
2017-07-01T01:19:32.488Z,16.04
2017-07-01T01:22:04.797Z,16.03
2017-07-01T01:24:37.195Z,15.90
2017-07-01T01:27:09.596Z,16.05
2017-07-01T01:29:42.107Z,15.98
2017-07-01T01:32:14.418Z,15.99
2017-07-01T01:34:46.819Z,16.00
2017-07-01T01:37:19.320Z,16.02
2017-07-01T01:39:51.608Z,16.05
2017-07-01T01:42:24.067Z,15.91
2017-07-01T01:44:56.458Z,16.00
2017-07-01T01:47:28.786Z,16.04
2017-07-01T01:50:01.371Z,15.90
2017-07-01T01:52:33.648Z,15.96
2017-07-01T01:55:06.072Z,15.86
2017-07-01T01:57:38.503Z,15.93
2017-07-01T02:00:10.648Z,15.99
2017-07-01T02:02:43.046Z,15.95
2017-07-01T02:05:15.608Z,15.97
2017-07-01T02:07:48.087Z,15.95
2017-07-01T02:10:20.308Z,15.89
2017-07-01T02:12:53.023Z,15.96
2017-07-01T02:15:25.417Z,15.93
2017-07-01T02:17:59.777Z,15.95
2017-07-01T02:20:43.228Z,15.90
2017-07-01T02:23:15.690Z,15.87
2017-07-01T02:26:00.403Z,15.88
2017-07-01T02:28:32.672Z,15.94
2017-07-01T02:31:04.919Z,15.92
2017-07-01T02:33:44.320Z,15.94
2017-07-01T02:36:19.508Z,15.81
2017-07-01T02:38:52.252Z,15.80
2017-07-01T02:41:24.104Z,15.73
2017-07-01T02:43:56.481Z,15.85
2017-07-01T02:46:39.639Z,15.81
2017-07-01T02:49:14.061Z,15.78
2017-07-01T02:52:06.865Z,15.74
2017-07-01T02:55:00.510Z,15.77
2017-07-01T02:57:32.979Z,15.84
2017-07-01T03:00:06.344Z,15.86
2017-07-01T03:02:38.903Z,15.91
2017-07-01T03:05:12.257Z,15.91
2017-07-01T03:07:44.834Z,15.94
2017-07-01T03:10:17.436Z,15.90
2017-07-01T03:12:49.573Z,15.97
2017-07-01T03:15:21.959Z,15.89
2017-07-01T03:18:15.236Z,15.84
2017-07-01T03:20:48.133Z,15.80
2017-07-01T03:23:20.465Z,15.85
2017-07-01T03:25:55.734Z,15.78
2017-07-01T03:28:28.357Z,15.81
2017-07-01T03:31:00.645Z,15.83
2017-07-01T03:33:38.988Z,15.79
2017-07-01T03:36:11.391Z,15.86
2017-07-01T03:38:56.273Z,15.78
2017-07-01T03:41:44.189Z,15.75
2017-07-01T03:44:22.895Z,15.85
2017-07-01T03:46:55.787Z,15.84
2017-07-01T03:49:33.296Z,15.94
2017-07-01T03:52:05.781Z,15.89
2017-07-01T03:54:48.071Z,15.89
2017-07-01T03:57:20.636Z,15.91
2017-07-01T03:59:53.124Z,15.89
2017-07-01T04:02:24.980Z,15.83
2017-07-01T04:04:57.512Z,15.87
2017-07-01T04:07:29.572Z,15.86
2017-07-01T04:10:01.964Z,15.97
2017-07-01T04:12:34.505Z,15.95
2017-07-01T04:15:06.824Z,15.87
2017-07-01T04:17:39.424Z,15.89
2017-07-01T04:20:11.623Z,15.99
2017-07-01T04:22:45.741Z,16.03
2017-07-01T04:25:17.740Z,16.02
2017-07-01T04:27:50.076Z,16.05
2017-07-01T04:30:22.344Z,16.16
2017-07-01T04:32:54.800Z,16.04
2017-07-01T04:35:27.047Z,16.13
2017-07-01T04:37:59.450Z,16.16
2017-07-01T04:40:32.916Z,16.17
2017-07-01T04:43:07.905Z,16.21
2017-07-01T04:45:40.577Z,16.24
2017-07-01T04:48:13.899Z,16.19
2017-07-01T04:50:59.027Z,16.18
2017-07-01T04:53:31.911Z,16.12
2017-07-01T04:56:04.670Z,16.17
2017-07-01T04:58:37.024Z,16.22
2017-07-01T05:01:10.335Z,16.25
2017-07-01T05:03:51.873Z,16.19
2017-07-01T05:06:26.167Z,16.22
2017-07-01T05:08:58.020Z,16.11
2017-07-01T05:11:30.759Z,16.15
2017-07-01T05:14:03.159Z,15.97
2017-07-01T05:16:37.385Z,16.07
2017-07-01T05:19:10.467Z,16.06
2017-07-01T05:21:42.531Z,16.10
2017-07-01T05:24:16.241Z,16.12
2017-07-01T05:26:48.901Z,16.12
2017-07-01T05:29:21.628Z,16.04
2017-07-01T05:31:54.084Z,16.02
2017-07-01T05:34:26.550Z,16.09
2017-07-01T05:36:59.868Z,16.09
2017-07-01T05:39:32.444Z,16.10
2017-07-01T05:42:27.753Z,16.11
2017-07-01T05:45:00.577Z,16.06
2017-07-01T05:47:32.377Z,16.10
2017-07-01T05:50:04.721Z,16.16
2017-07-01T05:52:37.086Z,16.19
2017-07-01T05:55:09.503Z,16.16
2017-07-01T05:57:44.330Z,16.18
2017-07-01T06:00:19.277Z,16.19
2017-07-01T06:02:52.473Z,16.20
2017-07-01T06:05:25.857Z,16.18
2017-07-01T06:07:58.223Z,16.22
2017-07-01T06:10:35.551Z,16.26
2017-07-01T06:13:08.820Z,16.27
2017-07-01T06:15:50.250Z,16.35
2017-07-01T06:18:28.968Z,16.43
2017-07-01T06:21:07.117Z,16.50
2017-07-01T06:24:02.547Z,16.46
2017-07-01T06:26:57.191Z,16.54
2017-07-01T06:29:41.391Z,16.59
2017-07-01T06:32:28.881Z,16.62
2017-07-01T06:35:10.556Z,16.67
2017-07-01T06:37:54.796Z,16.73
2017-07-01T06:40:49.512Z,16.68
2017-07-01T06:43:22.295Z,16.76
2017-07-01T06:45:54.753Z,16.86
2017-07-01T06:48:27.641Z,16.91
2017-07-01T06:51:00.011Z,16.99
2017-07-01T06:53:32.761Z,17.15
2017-07-01T06:56:04.966Z,17.25
2017-07-01T06:58:37.057Z,17.35
2017-07-01T07:01:09.688Z,17.48
2017-07-01T07:03:42.537Z,17.62
2017-07-01T07:06:14.875Z,17.70
2017-07-01T07:08:47.648Z,17.88
2017-07-01T07:11:20.007Z,17.95
2017-07-01T07:13:52.481Z,17.91
2017-07-01T07:16:24.782Z,17.81
2017-07-01T07:18:56.939Z,17.86
2017-07-01T07:21:28.919Z,18.01
2017-07-01T07:24:00.855Z,18.08
2017-07-01T07:26:33.516Z,18.09
2017-07-01T07:29:09.364Z,18.20
2017-07-01T07:31:41.800Z,18.19
2017-07-01T07:34:13.777Z,18.20
2017-07-01T07:36:46.272Z,18.22
2017-07-01T07:39:18.585Z,18.31
2017-07-01T07:41:51.203Z,18.55
2017-07-01T07:44:24.652Z,18.85
2017-07-01T07:46:57.132Z,19.29
2017-07-01T07:49:29.549Z,19.44
2017-07-01T07:52:01.894Z,19.46
2017-07-01T07:54:34.494Z,19.84
2017-07-01T07:57:06.593Z,19.83
2017-07-01T07:59:38.893Z,19.35
2017-07-01T08:02:11.325Z,19.01
2017-07-01T08:04:43.713Z,18.67
2017-07-01T08:07:17.098Z,18.47
2017-07-01T08:09:49.600Z,18.35
2017-07-01T08:12:21.854Z,18.27
2017-07-01T08:14:54.636Z,18.29
2017-07-01T08:17:26.699Z,18.31
2017-07-01T08:19:59.283Z,18.47
2017-07-01T08:22:31.545Z,18.62
2017-07-01T08:25:04.088Z,19.05
2017-07-01T08:27:36.429Z,19.66
2017-07-01T08:30:08.996Z,20.65
2017-07-01T08:32:41.630Z,21.86
2017-07-01T08:35:13.836Z,22.24
2017-07-01T08:37:46.300Z,22.53
2017-07-01T08:40:18.709Z,22.33
2017-07-01T08:42:51.370Z,21.90
2017-07-01T08:45:23.528Z,21.72
2017-07-01T08:47:55.883Z,21.63
2017-07-01T08:50:28.196Z,21.56
2017-07-01T08:53:00.543Z,21.52
2017-07-01T08:55:34.156Z,21.20
2017-07-01T08:58:06.348Z,21.28
2017-07-01T09:00:39.552Z,21.48
2017-07-01T09:03:12.408Z,21.74
2017-07-01T09:05:44.488Z,22.05
2017-07-01T09:08:16.749Z,22.18
2017-07-01T09:10:50.745Z,22.23
2017-07-01T09:13:22.565Z,22.56
2017-07-01T09:15:54.995Z,23.00
2017-07-01T09:18:27.401Z,23.10
2017-07-01T09:20:59.859Z,23.22
2017-07-01T09:23:32.205Z,23.32
2017-07-01T09:26:05.116Z,23.00
2017-07-01T09:28:36.980Z,22.55
2017-07-01T09:31:09.471Z,22.42
2017-07-01T09:33:41.909Z,22.21
2017-07-01T09:36:14.373Z,21.98
2017-07-01T09:38:46.855Z,21.93
2017-07-01T09:41:19.364Z,21.82
2017-07-01T09:43:52.220Z,21.68
2017-07-01T09:46:24.903Z,21.53
2017-07-01T09:48:57.280Z,21.64
2017-07-01T09:51:29.574Z,21.72
2017-07-01T09:54:02.031Z,21.58
2017-07-01T09:56:34.508Z,21.46
2017-07-01T10:12:13.525Z,21.35
2017-07-01T10:14:45.856Z,20.98
2017-07-01T10:17:19.260Z,20.67
2017-07-01T10:19:52.226Z,20.35
2017-07-01T10:22:24.347Z,20.20
2017-07-01T10:24:56.762Z,19.79
2017-07-01T10:27:29.209Z,19.52
2017-07-01T10:30:01.548Z,19.40
2017-07-01T10:32:34.036Z,19.32
2017-07-01T10:35:06.423Z,19.16
2017-07-01T10:37:38.846Z,19.14
2017-07-01T10:40:11.147Z,18.97
2017-07-01T10:42:43.528Z,18.98
2017-07-01T10:45:15.825Z,19.04
2017-07-01T10:47:48.220Z,19.14
2017-07-01T10:50:20.523Z,19.10
2017-07-01T10:52:53.008Z,19.02
2017-07-01T10:55:25.371Z,18.97
2017-07-01T10:57:57.680Z,18.99
2017-07-01T11:00:30.053Z,19.03
2017-07-01T11:03:02.355Z,19.12
2017-07-01T11:05:34.676Z,19.12
2017-07-01T11:08:07.087Z,19.03
2017-07-01T11:10:39.448Z,19.15
2017-07-01T11:13:11.805Z,19.31
2017-07-01T11:15:44.260Z,19.44
2017-07-01T11:18:16.669Z,19.45
2017-07-01T11:20:48.991Z,19.48
2017-07-01T11:23:21.339Z,19.42
2017-07-01T11:25:53.822Z,19.31
2017-07-01T11:28:26.164Z,19.10
2017-07-01T11:30:58.429Z,18.96
2017-07-01T11:33:30.720Z,18.77
2017-07-01T11:36:03.236Z,18.81
2017-07-01T11:38:35.629Z,18.77
2017-07-01T11:41:07.816Z,18.85
2017-07-01T11:43:40.168Z,18.87
2017-07-01T11:46:12.865Z,19.00
2017-07-01T11:48:44.980Z,19.04
2017-07-01T11:51:17.411Z,19.20
2017-07-01T11:53:49.911Z,19.40
2017-07-01T11:56:22.228Z,19.46
2017-07-01T11:58:55.259Z,19.50
2017-07-01T12:01:28.613Z,19.61
2017-07-01T12:04:00.355Z,19.63
2017-07-01T12:06:33.004Z,19.58
2017-07-01T12:09:05.202Z,19.60
2017-07-01T12:11:37.551Z,19.68
2017-07-01T12:14:09.921Z,19.63
2017-07-01T12:16:42.266Z,19.71
2017-07-01T12:19:14.817Z,19.76
2017-07-01T12:21:47.103Z,19.84
2017-07-01T12:24:20.423Z,19.89
2017-07-01T12:26:52.788Z,19.71
2017-07-01T12:29:25.808Z,19.43
2017-07-01T12:31:57.721Z,19.41
2017-07-01T12:34:30.161Z,19.47
2017-07-01T12:37:02.432Z,19.40
2017-07-01T12:39:34.787Z,19.46
2017-07-01T12:42:07.219Z,19.41
2017-07-01T12:44:39.569Z,19.39
2017-07-01T12:47:11.889Z,19.24
2017-07-01T12:49:44.332Z,19.15
2017-07-01T12:52:16.823Z,19.03
2017-07-01T12:54:49.133Z,19.10
2017-07-01T12:57:21.539Z,19.28
2017-07-01T12:59:54.771Z,19.58
2017-07-01T13:02:27.260Z,19.67
2017-07-01T13:04:59.924Z,19.83
2017-07-01T13:07:32.128Z,19.95
2017-07-01T13:10:04.744Z,19.92
2017-07-01T13:12:37.124Z,19.73
2017-07-01T13:15:09.541Z,19.72
2017-07-01T13:17:42.100Z,19.64
2017-07-01T13:20:14.201Z,19.58
2017-07-01T13:22:46.611Z,19.56
2017-07-01T13:25:19.148Z,19.57
2017-07-01T13:27:51.647Z,19.55
2017-07-01T13:30:24.955Z,19.61
2017-07-01T13:32:57.400Z,19.75
2017-07-01T13:35:29.919Z,19.78
2017-07-01T13:38:02.520Z,19.82
2017-07-01T13:40:34.948Z,19.81
2017-07-01T13:43:07.324Z,19.79
2017-07-01T13:45:39.572Z,19.79
2017-07-01T13:48:12.000Z,19.81
2017-07-01T13:50:44.712Z,19.76
2017-07-01T13:53:16.745Z,19.70
2017-07-01T13:55:50.064Z,19.61
2017-07-01T13:58:22.797Z,19.53
2017-07-01T14:00:55.448Z,19.47
2017-07-01T14:03:29.786Z,19.45
2017-07-01T14:09:07.076Z,19.64
2017-07-01T14:11:53.299Z,19.79
2017-07-01T14:14:25.472Z,19.92
2017-07-01T14:16:57.733Z,20.07
2017-07-01T14:19:30.223Z,20.23
2017-07-01T14:22:03.613Z,20.26
2017-07-01T14:24:36.085Z,20.10
2017-07-01T14:27:08.489Z,19.98
2017-07-01T14:29:40.916Z,19.80
2017-07-01T14:32:13.286Z,19.72
2017-07-01T14:34:45.682Z,19.77
2017-07-01T14:37:18.113Z,19.85
2017-07-01T14:39:50.485Z,19.91
2017-07-01T14:42:23.013Z,19.91
2017-07-01T14:44:55.417Z,19.95
2017-07-01T14:47:27.664Z,20.18
2017-07-01T14:50:00.022Z,20.35
2017-07-01T14:52:32.421Z,20.43
2017-07-01T14:55:04.844Z,20.51
2017-07-01T14:57:37.652Z,20.51
2017-07-01T15:00:09.617Z,20.49
2017-07-01T15:02:49.236Z,20.48
2017-07-01T15:05:21.411Z,20.52
2017-07-01T15:07:53.832Z,20.51
2017-07-01T15:10:26.317Z,20.45
2017-07-01T15:12:58.582Z,20.31
2017-07-01T15:15:30.904Z,20.33
2017-07-01T15:18:03.585Z,20.50
2017-07-01T15:20:35.521Z,20.75
2017-07-01T15:23:07.952Z,20.93
2017-07-01T15:25:40.392Z,20.88
2017-07-01T15:28:12.809Z,20.83
2017-07-01T15:30:45.076Z,20.77
2017-07-01T15:33:17.452Z,20.69
2017-07-01T15:35:49.813Z,20.62
2017-07-01T15:38:22.282Z,20.53
2017-07-01T15:40:54.767Z,20.45
2017-07-01T15:43:27.156Z,20.42
2017-07-01T15:45:59.573Z,20.45
2017-07-01T15:48:32.928Z,20.48
2017-07-01T15:51:05.281Z,20.55
2017-07-01T15:53:37.885Z,20.60
2017-07-01T15:56:10.124Z,20.69
2017-07-01T15:58:42.536Z,20.72
2017-07-01T16:01:27.324Z,20.75
2017-07-01T16:03:59.443Z,20.79
2017-07-01T16:06:31.782Z,20.84
2017-07-01T16:09:04.194Z,20.76
2017-07-01T16:11:36.532Z,20.87
2017-07-01T16:14:08.943Z,21.00
2017-07-01T16:16:41.616Z,21.21
2017-07-01T16:19:13.796Z,21.40
2017-07-01T16:21:46.247Z,21.62
2017-07-01T16:24:18.659Z,21.75
2017-07-01T16:26:51.009Z,21.87
2017-07-01T16:29:23.344Z,22.00
2017-07-01T16:31:55.842Z,22.03
2017-07-01T16:34:28.249Z,21.99
2017-07-01T16:37:00.704Z,21.98
2017-07-01T16:39:33.305Z,21.99
2017-07-01T16:42:05.788Z,22.21
2017-07-01T16:44:38.981Z,22.41
2017-07-01T16:47:11.505Z,22.52
2017-07-01T16:49:44.900Z,22.67
2017-07-01T16:52:17.300Z,22.82
2017-07-01T16:54:49.712Z,22.73
2017-07-01T16:57:22.047Z,22.39
2017-07-01T16:59:55.368Z,22.39
2017-07-01T17:02:27.807Z,22.41
2017-07-01T17:05:00.232Z,22.53
2017-07-01T17:07:32.671Z,22.67
2017-07-01T17:10:05.070Z,22.73
2017-07-01T17:12:37.445Z,22.76
2017-07-01T17:15:09.937Z,22.72
2017-07-01T17:17:42.496Z,22.56
2017-07-01T17:20:14.696Z,22.55
2017-07-01T17:22:47.067Z,22.57
2017-07-01T17:25:19.515Z,22.66
2017-07-01T17:27:52.728Z,22.80
2017-07-01T17:30:25.305Z,22.88
2017-07-01T17:32:57.524Z,22.92
2017-07-01T17:35:29.980Z,22.92
2017-07-01T17:38:02.325Z,22.83
2017-07-01T17:40:34.666Z,22.78
2017-07-01T17:43:07.008Z,22.67
2017-07-01T17:45:39.425Z,22.65
2017-07-01T17:48:11.671Z,22.60
2017-07-01T17:50:44.050Z,22.51
2017-07-01T17:53:16.241Z,22.47
2017-07-01T17:55:48.699Z,22.43
2017-07-01T17:58:21.062Z,22.33
2017-07-01T18:00:54.565Z,22.30
2017-07-01T18:03:26.952Z,22.25
2017-07-01T18:05:59.443Z,22.18
2017-07-01T18:08:31.881Z,22.09
2017-07-01T18:11:04.417Z,21.99
2017-07-01T18:13:36.636Z,21.91
2017-07-01T18:16:09.927Z,21.86
2017-07-01T18:18:42.321Z,21.81
2017-07-01T18:21:14.631Z,21.73
2017-07-01T18:23:46.986Z,21.73
2017-07-01T18:26:19.362Z,21.68
2017-07-01T18:28:51.605Z,21.62
2017-07-01T18:31:23.969Z,21.53
2017-07-01T18:33:56.446Z,21.50
2017-07-01T18:36:28.844Z,21.45
2017-07-01T18:39:01.162Z,21.43
2017-07-01T18:41:33.487Z,21.37
2017-07-01T18:44:06.021Z,21.32
2017-07-01T18:46:38.894Z,21.27
2017-07-01T18:49:12.004Z,21.23
2017-07-01T18:51:44.205Z,21.12
2017-07-01T18:54:16.444Z,21.07
2017-07-01T18:56:49.831Z,20.98
2017-07-01T18:59:22.901Z,20.88
2017-07-01T19:01:55.622Z,20.81
2017-07-01T19:04:28.196Z,20.73
2017-07-01T19:07:00.691Z,20.64
2017-07-01T19:09:32.980Z,20.55
2017-07-01T19:12:05.421Z,20.48
2017-07-01T19:14:37.776Z,20.31
2017-07-01T19:17:11.156Z,20.20
2017-07-01T19:19:43.768Z,20.12
2017-07-01T19:22:16.237Z,19.93
2017-07-01T19:24:48.708Z,19.90
2017-07-01T19:27:21.116Z,19.82
2017-07-01T19:29:53.453Z,19.72
2017-07-01T19:32:26.752Z,19.63
2017-07-01T19:34:59.384Z,19.52
2017-07-01T19:37:32.089Z,19.47
2017-07-01T19:40:04.081Z,19.44
2017-07-01T19:42:36.500Z,19.34
2017-07-01T19:45:08.813Z,19.29
2017-07-01T19:47:41.224Z,19.22
2017-07-01T19:50:13.625Z,19.11
2017-07-01T19:52:45.999Z,18.90
2017-07-01T19:55:18.421Z,18.87
2017-07-01T19:57:50.837Z,18.85
2017-07-01T20:00:23.400Z,18.73
2017-07-01T20:02:55.757Z,18.64
2017-07-01T20:05:28.260Z,18.55
2017-07-01T20:08:00.580Z,18.42
2017-07-01T20:10:32.810Z,18.38
2017-07-01T20:13:05.071Z,18.34
2017-07-01T20:15:37.345Z,18.24
2017-07-01T20:18:16.079Z,18.20
2017-07-01T20:20:48.216Z,18.15
2017-07-01T20:23:20.720Z,18.09
2017-07-01T20:25:53.040Z,17.99
2017-07-01T20:28:25.398Z,17.96
2017-07-01T20:30:57.715Z,17.91
2017-07-01T20:33:30.087Z,17.83
2017-07-01T20:36:02.359Z,17.83
2017-07-01T20:38:34.981Z,17.77
2017-07-01T20:41:07.351Z,17.71
2017-07-01T20:43:39.756Z,17.66
2017-07-01T20:46:11.971Z,17.59
2017-07-01T20:48:44.352Z,17.52
2017-07-01T20:51:16.679Z,17.45
2017-07-01T20:53:49.865Z,17.40
2017-07-01T20:56:23.104Z,17.37
2017-07-01T20:58:55.609Z,17.35
2017-07-01T21:01:27.976Z,17.28
2017-07-01T21:04:00.373Z,17.20
2017-07-01T21:06:32.666Z,17.12
2017-07-01T21:09:05.074Z,17.03
2017-07-01T21:11:37.416Z,16.97
2017-07-01T21:14:10.713Z,16.91
2017-07-01T21:16:43.286Z,16.83
2017-07-01T21:19:15.712Z,16.80
2017-07-01T21:21:48.125Z,16.74
2017-07-01T21:24:20.528Z,16.69
2017-07-01T21:26:53.090Z,16.69
2017-07-01T21:29:25.180Z,16.64
2017-07-01T21:31:57.515Z,16.68
2017-07-01T21:34:29.952Z,16.67
2017-07-01T21:37:02.389Z,16.69
2017-07-01T21:39:34.959Z,16.68
2017-07-01T21:42:06.999Z,16.65
2017-07-01T21:44:39.424Z,16.61
2017-07-01T21:47:11.933Z,16.57
2017-07-01T21:49:44.282Z,16.53
2017-07-01T21:52:17.517Z,16.53
2017-07-01T21:54:49.884Z,16.49
2017-07-01T21:57:22.291Z,16.46
2017-07-01T21:59:54.663Z,16.49
2017-07-01T22:02:27.094Z,16.48
2017-07-01T22:05:00.507Z,16.50
2017-07-01T22:07:33.108Z,16.58
2017-07-01T22:10:05.200Z,16.56
2017-07-01T22:12:37.784Z,16.56
2017-07-01T22:15:10.912Z,16.51
2017-07-01T22:17:44.200Z,16.43
2017-07-01T22:20:16.712Z,16.44
2017-07-01T22:22:48.975Z,16.34
2017-07-01T22:25:21.376Z,16.25
2017-07-01T22:27:53.788Z,16.24
2017-07-01T22:30:26.003Z,16.22
2017-07-01T22:32:58.489Z,16.20
2017-07-01T22:35:30.891Z,16.15
2017-07-01T22:38:03.245Z,16.13
2017-07-01T22:40:35.627Z,16.12
2017-07-01T22:43:07.995Z,16.09
2017-07-01T22:45:40.493Z,16.08
2017-07-01T22:48:12.939Z,16.07
2017-07-01T22:50:45.712Z,16.04
2017-07-01T22:53:17.672Z,16.01
2017-07-01T22:55:50.057Z,16.00
2017-07-01T22:58:22.432Z,16.00
2017-07-01T23:00:54.789Z,16.01
2017-07-01T23:03:27.176Z,15.94
2017-07-01T23:05:59.563Z,15.95
2017-07-01T23:08:31.928Z,16.00
2017-07-01T23:11:04.369Z,16.10
2017-07-01T23:13:36.757Z,16.11
2017-07-01T23:16:09.255Z,16.08
2017-07-01T23:18:42.529Z,16.11
2017-07-01T23:21:14.936Z,16.10
2017-07-01T23:23:47.313Z,16.10
2017-07-01T23:26:20.637Z,16.10
2017-07-01T23:28:53.223Z,16.02
2017-07-01T23:31:25.716Z,15.95
2017-07-01T23:33:58.113Z,16.00
2017-07-01T23:36:30.495Z,16.03
2017-07-01T23:39:02.873Z,15.99
2017-07-01T23:41:35.205Z,16.03
2017-07-01T23:44:07.512Z,16.07
2017-07-01T23:46:39.740Z,16.15
2017-07-01T23:49:12.173Z,16.13
2017-07-01T23:51:44.419Z,16.18
2017-07-01T23:54:17.091Z,16.16
2017-07-01T23:56:49.181Z,16.13
2017-07-01T23:59:21.567Z,16.12
